createdAt,value
2023-03-19T00:00:48.150Z,7.18
2023-03-19T00:03:15.545Z,7.18
2023-03-19T00:05:51.560Z,7.11
2023-03-19T00:08:18.792Z,7.21
2023-03-19T00:10:46.391Z,7.25
2023-03-19T00:13:13.629Z,7.17
2023-03-19T00:15:41.539Z,7.23
2023-03-19T00:18:08.889Z,7.29
2023-03-19T00:20:36.432Z,7.16
2023-03-19T00:23:04.791Z,7.05
2023-03-19T00:25:33.676Z,7.09
2023-03-19T00:28:01.568Z,7.13
2023-03-19T00:30:29.541Z,7.06
2023-03-19T00:32:57.029Z,7.13
2023-03-19T00:35:24.277Z,7.18
2023-03-19T00:37:51.507Z,7.27
2023-03-19T00:40:19.147Z,7.22
2023-03-19T00:42:46.685Z,7.14
2023-03-19T00:45:14.176Z,7.11
2023-03-19T00:47:42.191Z,7.31
2023-03-19T00:50:10.886Z,7.38
2023-03-19T00:52:38.083Z,7.40
2023-03-19T00:55:05.832Z,7.40
2023-03-19T00:57:33.267Z,7.54
2023-03-19T01:00:00.504Z,7.51
2023-03-19T01:02:27.689Z,7.45
2023-03-19T01:04:55.056Z,7.40
2023-03-19T01:07:22.572Z,7.22
2023-03-19T01:09:49.766Z,7.09
2023-03-19T01:12:19.321Z,7.04
2023-03-19T01:14:46.641Z,7.09
2023-03-19T01:17:13.809Z,7.13
2023-03-19T01:19:41.766Z,7.19
2023-03-19T01:22:09.394Z,7.02
2023-03-19T01:24:37.901Z,6.88
2023-03-19T01:27:05.855Z,6.84
2023-03-19T01:29:35.308Z,6.74
2023-03-19T01:32:13.859Z,6.71
2023-03-19T01:34:59.726Z,6.61
2023-03-19T01:37:27.417Z,6.56
2023-03-19T01:39:54.599Z,6.54
2023-03-19T01:42:21.915Z,6.51
2023-03-19T01:44:56.068Z,6.56
2023-03-19T01:47:43.409Z,6.56
2023-03-19T01:50:50.425Z,6.55
2023-03-19T01:53:54.179Z,6.43
2023-03-19T01:56:43.957Z,6.40
2023-03-19T01:59:30.624Z,6.47
2023-03-19T02:02:33.262Z,6.54
2023-03-19T02:05:15.562Z,6.52
2023-03-19T02:07:46.039Z,6.47
2023-03-19T02:10:17.011Z,6.71
2023-03-19T02:12:44.853Z,6.84
2023-03-19T02:15:12.642Z,6.86
2023-03-19T02:17:41.964Z,6.73
2023-03-19T02:20:32.995Z,6.47
2023-03-19T02:23:42.281Z,6.41
2023-03-19T02:26:22.012Z,6.40
2023-03-19T02:28:53.719Z,6.49
2023-03-19T02:31:30.120Z,6.56
2023-03-19T02:34:25.488Z,6.73
2023-03-19T02:37:07.767Z,6.64
2023-03-19T02:40:01.596Z,6.44
2023-03-19T02:42:30.221Z,6.33
2023-03-19T02:44:58.552Z,6.34
2023-03-19T02:47:27.379Z,6.51
2023-03-19T02:49:54.937Z,6.41
2023-03-19T02:52:23.024Z,6.31
2023-03-19T02:54:50.380Z,6.24
2023-03-19T02:57:18.640Z,6.19
2023-03-19T02:59:46.306Z,6.07
2023-03-19T03:02:14.123Z,5.96
2023-03-19T03:04:41.844Z,5.95
2023-03-19T03:07:09.307Z,5.85
2023-03-19T03:09:36.604Z,5.76
2023-03-19T03:12:04.802Z,5.64
2023-03-19T03:14:32.175Z,5.89
2023-03-19T03:17:00.503Z,5.90
2023-03-19T03:19:27.771Z,5.76
2023-03-19T03:21:55.403Z,5.77
2023-03-19T03:24:22.734Z,5.64
2023-03-19T03:26:49.930Z,5.54
2023-03-19T03:29:17.231Z,5.44
2023-03-19T03:31:44.684Z,5.34
2023-03-19T03:34:12.073Z,5.15
2023-03-19T03:36:39.482Z,5.07
2023-03-19T03:39:06.981Z,5.06
2023-03-19T03:41:34.208Z,5.15
2023-03-19T03:44:02.552Z,5.14
2023-03-19T03:46:34.380Z,5.15
2023-03-19T03:49:02.231Z,5.15
2023-03-19T03:51:29.438Z,5.19
2023-03-19T03:53:56.694Z,5.20
2023-03-19T03:56:24.071Z,5.11
2023-03-19T03:58:51.503Z,5.17
2023-03-19T04:01:19.821Z,5.14
2023-03-19T04:03:51.922Z,5.26
2023-03-19T04:06:22.590Z,5.27
2023-03-19T04:09:01.626Z,5.17
2023-03-19T04:11:29.566Z,5.09
2023-03-19T04:13:57.676Z,5.02
2023-03-19T04:16:25.875Z,4.92
2023-03-19T04:18:53.709Z,4.93
2023-03-19T04:21:21.280Z,4.95
2023-03-19T04:23:48.489Z,5.03
2023-03-19T04:26:16.086Z,5.06
2023-03-19T04:28:43.400Z,5.13
2023-03-19T04:31:12.543Z,5.14
2023-03-19T04:33:44.477Z,5.06
2023-03-19T04:36:11.950Z,5.19
2023-03-19T04:38:39.223Z,5.20
2023-03-19T04:41:06.488Z,5.32
2023-03-19T04:43:37.122Z,5.15
2023-03-19T04:46:08.058Z,4.96
2023-03-19T04:48:36.605Z,4.89
2023-03-19T04:51:04.373Z,4.92
2023-03-19T04:53:32.980Z,5.05
2023-03-19T04:56:00.234Z,4.92
2023-03-19T04:58:27.600Z,5.03
2023-03-19T05:01:00.270Z,5.08
2023-03-19T05:03:47.600Z,5.04
2023-03-19T05:06:17.280Z,4.99
2023-03-19T05:08:44.630Z,5.02
2023-03-19T05:11:12.123Z,5.06
2023-03-19T05:13:55.229Z,4.99
2023-03-19T05:16:23.132Z,5.07
2023-03-19T05:18:50.478Z,5.05
2023-03-19T05:21:17.881Z,5.06
2023-03-19T05:23:45.601Z,5.08
2023-03-19T05:26:12.856Z,5.19
2023-03-19T05:28:58.782Z,5.29
2023-03-19T05:31:35.322Z,5.37
2023-03-19T05:34:02.656Z,5.53
2023-03-19T05:36:32.502Z,5.69
2023-03-19T05:39:14.674Z,5.83
2023-03-19T05:41:43.672Z,5.80
2023-03-19T05:44:12.884Z,5.79
2023-03-19T05:46:50.286Z,5.63
2023-03-19T05:49:19.548Z,5.56
2023-03-19T05:51:46.759Z,5.53
2023-03-19T05:54:14.203Z,5.47
2023-03-19T05:57:05.960Z,5.52
2023-03-19T05:59:49.961Z,5.88
2023-03-19T06:02:44.268Z,5.72
2023-03-19T06:05:37.761Z,5.61
2023-03-19T06:08:25.341Z,5.54
2023-03-19T06:11:16.384Z,5.44
2023-03-19T06:13:47.414Z,5.54
2023-03-19T06:16:17.310Z,5.64
2023-03-19T06:19:04.676Z,5.73
2023-03-19T06:21:32.893Z,5.94
2023-03-19T06:24:03.317Z,6.15
2023-03-19T06:26:34.934Z,6.30
2023-03-19T06:29:06.608Z,6.48
2023-03-19T06:31:34.689Z,6.57
2023-03-19T06:34:40.126Z,6.59
2023-03-19T06:37:07.787Z,6.73
2023-03-19T06:39:35.187Z,6.77
2023-03-19T06:42:02.439Z,6.71
2023-03-19T06:44:30.007Z,6.69
2023-03-19T06:46:57.328Z,6.66
2023-03-19T06:49:24.572Z,6.76
2023-03-19T06:51:51.789Z,6.80
2023-03-19T06:54:19.137Z,6.85
2023-03-19T06:56:46.962Z,6.89
2023-03-19T06:59:14.594Z,6.93
2023-03-19T07:01:42.181Z,6.94
2023-03-19T07:04:10.928Z,7.06
2023-03-19T07:06:38.489Z,7.11
2023-03-19T07:09:05.677Z,7.10
2023-03-19T07:11:35.714Z,7.07
2023-03-19T07:14:04.560Z,7.22
2023-03-19T07:16:32.005Z,7.33
2023-03-19T07:18:59.217Z,7.39
2023-03-19T07:21:26.473Z,7.33
2023-03-19T07:23:53.700Z,7.31
2023-03-19T07:26:20.995Z,7.34
2023-03-19T07:28:48.452Z,7.35
2023-03-19T07:31:16.878Z,7.44
2023-03-19T07:33:44.430Z,7.51
2023-03-19T07:36:12.289Z,7.68
2023-03-19T07:38:39.549Z,7.78
2023-03-19T07:41:06.815Z,7.88
2023-03-19T07:43:34.200Z,7.99
2023-03-19T07:46:01.617Z,8.20
2023-03-19T07:48:28.981Z,8.34
2023-03-19T07:50:56.209Z,8.36
2023-03-19T07:53:23.518Z,8.63
2023-03-19T07:55:50.763Z,8.84
2023-03-19T07:58:18.272Z,8.95
2023-03-19T08:00:46.131Z,8.92
2023-03-19T08:03:13.634Z,9.07
2023-03-19T08:05:40.897Z,9.15
2023-03-19T08:08:08.696Z,9.33
2023-03-19T08:10:38.069Z,9.46
2023-03-19T08:13:05.844Z,9.64
2023-03-19T08:15:33.627Z,9.86
2023-03-19T08:18:05.078Z,9.90
2023-03-19T08:20:33.445Z,9.83
2023-03-19T08:23:00.849Z,9.86
2023-03-19T08:25:32.312Z,9.97
2023-03-19T08:28:01.285Z,10.10
2023-03-19T08:30:28.989Z,10.22
2023-03-19T08:32:56.660Z,10.31
2023-03-19T08:35:27.025Z,10.42
2023-03-19T08:37:55.977Z,10.56
2023-03-19T08:40:24.323Z,10.41
2023-03-19T08:42:51.599Z,10.45
2023-03-19T08:45:19.264Z,10.60
2023-03-19T08:47:46.589Z,10.73
2023-03-19T08:50:13.977Z,11.07
2023-03-19T08:52:41.663Z,10.92
2023-03-19T08:55:10.554Z,11.03
2023-03-19T08:57:38.117Z,11.14
2023-03-19T09:00:06.732Z,11.49
2023-03-19T09:02:34.202Z,11.61
2023-03-19T09:05:01.452Z,11.81
2023-03-19T09:07:28.785Z,11.76
2023-03-19T09:09:56.150Z,11.83
2023-03-19T09:12:23.349Z,11.80
2023-03-19T09:14:50.542Z,12.04
2023-03-19T09:17:18.254Z,12.10
2023-03-19T09:19:45.633Z,12.08
2023-03-19T09:22:12.910Z,11.58
2023-03-19T09:24:40.786Z,12.08
2023-03-19T09:27:08.472Z,12.31
2023-03-19T09:29:36.116Z,12.57
2023-03-19T09:32:04.868Z,12.77
2023-03-19T09:34:32.093Z,12.94
2023-03-19T09:36:59.360Z,12.16
2023-03-19T09:39:26.685Z,12.48
2023-03-19T09:42:40.479Z,12.98
2023-03-19T09:45:19.764Z,12.93
2023-03-19T09:47:56.426Z,13.26
2023-03-19T09:50:28.814Z,13.34
2023-03-19T09:53:19.444Z,13.28
2023-03-19T09:55:54.195Z,13.45
2023-03-19T09:58:31.975Z,13.30
2023-03-19T10:01:01.098Z,13.37
2023-03-19T10:03:48.304Z,13.56
2023-03-19T10:06:39.679Z,13.34
2023-03-19T10:09:41.104Z,13.11
2023-03-19T10:13:07.251Z,13.13
2023-03-19T10:15:37.839Z,13.11
2023-03-19T10:18:20.849Z,13.29
2023-03-19T10:21:16.510Z,13.05
2023-03-19T10:24:14.936Z,13.54
2023-03-19T10:26:43.859Z,13.80
2023-03-19T10:29:19.116Z,13.73
2023-03-19T10:32:21.589Z,14.26
2023-03-19T10:34:53.884Z,14.57
2023-03-19T10:37:30.459Z,14.38
2023-03-19T10:40:00.852Z,13.09
2023-03-19T10:43:12.873Z,13.33
2023-03-19T10:45:40.788Z,14.30
2023-03-19T10:48:17.554Z,14.72
2023-03-19T10:50:58.752Z,15.66
2023-03-19T10:53:35.906Z,16.27
2023-03-19T10:56:30.254Z,16.37
2023-03-19T10:59:06.194Z,18.57
2023-03-19T11:01:41.340Z,19.93
2023-03-19T11:04:19.730Z,20.50
2023-03-19T11:07:06.228Z,19.56
2023-03-19T11:09:38.132Z,18.42
2023-03-19T11:12:21.894Z,18.91
2023-03-19T11:14:53.025Z,20.36
2023-03-19T11:17:46.181Z,19.58
2023-03-19T11:20:22.446Z,18.82
2023-03-19T11:22:52.742Z,14.83
2023-03-19T11:25:30.897Z,15.13
2023-03-19T11:28:07.335Z,15.03
2023-03-19T11:31:20.415Z,15.87
2023-03-19T11:34:23.180Z,16.38
2023-03-19T11:37:33.693Z,15.75
2023-03-19T11:40:20.372Z,16.66
2023-03-19T11:43:41.029Z,16.66
2023-03-19T11:46:54.260Z,15.81
2023-03-19T11:49:55.411Z,16.55
2023-03-19T11:52:57.039Z,17.33
2023-03-19T11:56:15.374Z,17.23
2023-03-19T11:59:47.022Z,16.97
2023-03-19T12:03:00.257Z,16.08
2023-03-19T12:05:49.789Z,17.06
2023-03-19T12:09:02.289Z,16.50
2023-03-19T12:12:05.318Z,15.49
2023-03-19T12:15:05.476Z,15.48
2023-03-19T12:17:52.664Z,16.57
2023-03-19T12:21:15.218Z,16.67
2023-03-19T12:24:37.910Z,15.24
2023-03-19T12:27:44.249Z,17.55
2023-03-19T12:30:53.804Z,18.32
2023-03-19T12:33:43.672Z,18.21
2023-03-19T12:36:22.243Z,18.57
2023-03-19T12:39:06.670Z,18.16
2023-03-19T12:41:37.013Z,18.51
2023-03-19T12:44:21.859Z,18.56
2023-03-19T12:47:24.754Z,16.69
2023-03-19T12:50:04.828Z,17.78
2023-03-19T12:52:53.508Z,17.52
2023-03-19T12:55:36.425Z,17.71
2023-03-19T12:58:50.863Z,16.66
2023-03-19T13:01:27.825Z,17.01
2023-03-19T13:04:40.364Z,15.43
2023-03-19T13:07:40.753Z,15.44
2023-03-19T13:10:22.784Z,15.43
2023-03-19T13:12:54.177Z,16.00
2023-03-19T13:15:33.236Z,16.68
2023-03-19T13:18:32.931Z,16.61
2023-03-19T13:21:33.329Z,16.28
2023-03-19T13:24:25.939Z,16.83
2023-03-19T13:26:56.218Z,17.14
2023-03-19T13:29:30.694Z,17.71
2023-03-19T13:32:34.648Z,17.80
2023-03-19T13:35:30.953Z,17.41
2023-03-19T13:38:38.188Z,16.80
2023-03-19T13:41:06.295Z,16.86
2023-03-19T13:43:33.740Z,17.01
2023-03-19T13:46:12.039Z,16.97
2023-03-19T13:48:53.558Z,16.64
2023-03-19T13:51:21.197Z,16.46
2023-03-19T13:54:23.007Z,15.70
2023-03-19T13:57:02.362Z,16.25
2023-03-19T13:59:36.831Z,15.93
2023-03-19T14:02:26.929Z,16.06
2023-03-19T14:05:16.947Z,16.11
2023-03-19T14:07:53.183Z,16.20
2023-03-19T14:10:26.307Z,15.92
2023-03-19T14:13:09.393Z,15.90
2023-03-19T14:15:41.803Z,15.89
2023-03-19T14:18:19.411Z,15.92
2023-03-19T14:21:03.198Z,15.94
2023-03-19T14:23:42.025Z,15.40
2023-03-19T14:26:22.744Z,15.30
2023-03-19T14:29:07.367Z,15.14
2023-03-19T14:32:08.688Z,15.47
2023-03-19T14:34:42.252Z,15.81
2023-03-19T14:37:37.034Z,15.97
2023-03-19T14:40:24.182Z,15.99
2023-03-19T14:43:17.060Z,15.84
2023-03-19T14:46:27.896Z,15.55
2023-03-19T14:49:53.194Z,15.84
2023-03-19T14:52:35.063Z,15.13
2023-03-19T14:55:13.940Z,15.60
2023-03-19T14:57:43.488Z,15.16
2023-03-19T15:00:18.602Z,15.12
2023-03-19T15:02:51.750Z,15.48
2023-03-19T15:05:33.592Z,15.47
2023-03-19T15:08:12.516Z,15.08
2023-03-19T15:11:13.473Z,15.16
2023-03-19T15:14:42.901Z,15.50
2023-03-19T15:17:22.042Z,15.37
2023-03-19T15:19:49.878Z,15.35
2023-03-19T15:22:26.974Z,15.21
2023-03-19T15:24:54.277Z,15.19
2023-03-19T15:27:27.666Z,15.17
2023-03-19T15:30:03.159Z,15.30
2023-03-19T15:33:04.249Z,15.02
2023-03-19T15:35:36.268Z,14.94
2023-03-19T15:38:10.034Z,14.94
2023-03-19T15:40:38.506Z,14.62
2023-03-19T15:43:06.154Z,14.62
2023-03-19T15:45:34.448Z,14.58
2023-03-19T15:48:28.263Z,14.57
2023-03-19T15:51:00.108Z,14.55
2023-03-19T15:53:33.003Z,14.46
2023-03-19T15:56:02.594Z,14.59
2023-03-19T15:58:47.128Z,14.53
2023-03-19T16:01:17.990Z,14.64
2023-03-19T16:04:00.724Z,14.56
2023-03-19T16:06:35.949Z,14.66
2023-03-19T16:09:24.997Z,14.60
2023-03-19T16:11:53.337Z,14.59
2023-03-19T16:14:30.552Z,14.53
2023-03-19T16:17:14.877Z,14.71
2023-03-19T16:19:57.817Z,14.37
2023-03-19T16:22:31.970Z,14.33
2023-03-19T16:25:01.880Z,14.43
2023-03-19T16:27:40.250Z,14.54
2023-03-19T16:30:29.311Z,14.40
2023-03-19T16:33:03.741Z,14.38
2023-03-19T16:35:34.649Z,14.38
2023-03-19T16:38:25.675Z,14.32
2023-03-19T16:41:32.256Z,14.29
2023-03-19T16:44:19.123Z,13.98
2023-03-19T16:46:46.438Z,13.98
2023-03-19T16:49:13.682Z,13.96
2023-03-19T16:51:40.999Z,13.98
2023-03-19T16:54:12.776Z,13.95
2023-03-19T16:56:40.173Z,14.02
2023-03-19T16:59:20.867Z,13.93
2023-03-19T17:01:48.138Z,13.95
2023-03-19T17:04:18.467Z,13.80
2023-03-19T17:06:45.869Z,13.80
2023-03-19T17:09:13.111Z,13.40
2023-03-19T17:11:42.750Z,13.25
2023-03-19T17:14:29.854Z,13.20
2023-03-19T17:16:57.343Z,13.10
2023-03-19T17:19:36.126Z,13.10
2023-03-19T17:22:03.375Z,13.00
2023-03-19T17:24:34.004Z,12.85
2023-03-19T17:27:03.988Z,12.79
2023-03-19T17:29:33.105Z,12.67
2023-03-19T17:32:02.457Z,12.58
2023-03-19T17:34:31.923Z,12.51
2023-03-19T17:37:03.115Z,12.41
2023-03-19T17:39:31.536Z,12.38
2023-03-19T17:41:59.561Z,12.40
2023-03-19T17:44:27.880Z,12.35
2023-03-19T17:46:56.221Z,12.35
2023-03-19T17:49:34.696Z,12.30
2023-03-19T17:52:02.074Z,12.27
2023-03-19T17:54:29.309Z,12.27
2023-03-19T17:56:56.727Z,12.17
2023-03-19T17:59:24.416Z,12.10
2023-03-19T18:01:52.023Z,12.06
2023-03-19T18:04:21.571Z,12.04
2023-03-19T18:06:56.487Z,12.01
2023-03-19T18:09:32.847Z,11.98
2023-03-19T18:12:00.269Z,11.95
2023-03-19T18:14:27.478Z,11.94
2023-03-19T18:16:54.815Z,11.94
2023-03-19T18:19:38.038Z,11.96
2023-03-19T18:22:18.238Z,11.92
2023-03-19T18:24:46.106Z,11.87
2023-03-19T18:27:13.452Z,11.80
2023-03-19T18:29:40.819Z,11.76
2023-03-19T18:32:30.354Z,11.72
2023-03-19T18:34:57.592Z,11.74
2023-03-19T18:37:24.801Z,11.71
2023-03-19T18:39:53.050Z,11.66
2023-03-19T18:42:20.310Z,11.65
2023-03-19T18:44:47.561Z,11.61
2023-03-19T18:47:17.735Z,11.58
2023-03-19T18:49:45.067Z,11.52
2023-03-19T18:52:19.306Z,11.52
2023-03-19T18:54:46.862Z,11.48
2023-03-19T18:57:15.667Z,11.46
2023-03-19T18:59:42.951Z,11.41
2023-03-19T19:02:37.206Z,11.36
2023-03-19T19:05:04.862Z,11.39
2023-03-19T19:07:32.160Z,11.42
2023-03-19T19:09:59.305Z,11.44
2023-03-19T19:12:27.141Z,11.45
2023-03-19T19:14:54.446Z,11.52
2023-03-19T19:17:29.079Z,11.45
2023-03-19T19:19:56.510Z,11.48
2023-03-19T19:22:23.759Z,11.37
2023-03-19T19:24:51.060Z,11.21
2023-03-19T19:27:25.927Z,11.16
2023-03-19T19:29:53.556Z,11.22
2023-03-19T19:32:28.661Z,11.17
2023-03-19T19:34:56.710Z,11.11
2023-03-19T19:37:24.291Z,11.09
2023-03-19T19:39:52.161Z,11.08
2023-03-19T19:42:22.072Z,11.08
2023-03-19T19:44:56.205Z,11.06
2023-03-19T19:47:23.431Z,11.05
2023-03-19T19:49:50.709Z,11.04
2023-03-19T19:52:20.025Z,11.01
2023-03-19T19:54:47.777Z,10.99
2023-03-19T19:57:24.911Z,10.98
2023-03-19T19:59:53.391Z,10.95
2023-03-19T20:02:29.178Z,10.93
2023-03-19T20:04:57.855Z,10.90
2023-03-19T20:07:25.047Z,10.85
2023-03-19T20:09:52.263Z,10.88
2023-03-19T20:12:31.138Z,10.87
2023-03-19T20:14:58.785Z,10.85
2023-03-19T20:17:27.156Z,10.79
2023-03-19T20:19:54.298Z,10.76
2023-03-19T20:22:21.606Z,10.77
2023-03-19T20:24:51.279Z,10.72
2023-03-19T20:27:30.443Z,10.77
2023-03-19T20:29:57.736Z,10.72
2023-03-19T20:32:38.371Z,10.67
2023-03-19T20:35:19.086Z,10.67
2023-03-19T20:37:46.681Z,10.62
2023-03-19T20:40:15.147Z,10.60
2023-03-19T20:42:43.705Z,10.50
2023-03-19T20:45:22.216Z,10.41
2023-03-19T20:47:54.555Z,10.35
2023-03-19T20:50:29.816Z,10.23
2023-03-19T20:53:01.133Z,10.19
2023-03-19T20:55:36.146Z,10.22
2023-03-19T20:58:29.733Z,10.08
2023-03-19T21:00:58.681Z,9.98
2023-03-19T21:03:30.014Z,9.96
2023-03-19T21:06:06.823Z,9.94
2023-03-19T21:08:40.704Z,9.82
2023-03-19T21:11:34.040Z,9.75
2023-03-19T21:14:02.010Z,9.63
2023-03-19T21:16:30.676Z,9.48
2023-03-19T21:18:58.948Z,9.40
2023-03-19T21:21:35.520Z,9.38
2023-03-19T21:24:19.707Z,9.36
2023-03-19T21:26:47.308Z,9.42
2023-03-19T21:29:30.869Z,9.42
2023-03-19T21:31:58.391Z,9.35
2023-03-19T21:34:26.187Z,9.30
2023-03-19T21:36:53.356Z,9.23
2023-03-19T21:39:20.599Z,9.28
2023-03-19T21:41:48.205Z,9.18
2023-03-19T21:44:20.936Z,9.09
2023-03-19T21:46:48.941Z,9.04
2023-03-19T21:49:16.773Z,8.98
2023-03-19T21:51:44.176Z,8.95
2023-03-19T21:54:11.439Z,8.96
2023-03-19T21:56:45.000Z,8.97
2023-03-19T21:59:26.330Z,8.93
2023-03-19T22:01:53.621Z,8.86
2023-03-19T22:04:21.173Z,8.79
2023-03-19T22:06:49.056Z,8.76
2023-03-19T22:09:16.446Z,8.73
2023-03-19T22:11:45.901Z,8.71
2023-03-19T22:14:26.712Z,8.74
2023-03-19T22:16:56.249Z,8.70
2023-03-19T22:19:23.713Z,8.67
2023-03-19T22:21:50.995Z,8.64
2023-03-19T22:24:18.174Z,8.60
2023-03-19T22:26:49.548Z,8.59
2023-03-19T22:29:23.473Z,8.56
2023-03-19T22:31:52.964Z,8.50
2023-03-19T22:34:25.528Z,8.48
2023-03-19T22:36:52.984Z,8.47
2023-03-19T22:39:20.325Z,8.44
2023-03-19T22:41:49.311Z,8.41
2023-03-19T22:44:31.216Z,8.37
2023-03-19T22:47:01.088Z,8.32
2023-03-19T22:49:29.687Z,8.29
2023-03-19T22:51:58.062Z,8.24
2023-03-19T22:54:27.339Z,8.14
2023-03-19T22:56:54.532Z,8.07
2023-03-19T22:59:22.876Z,8.06
2023-03-19T23:01:50.104Z,8.04
2023-03-19T23:04:30.456Z,7.93
2023-03-19T23:07:00.528Z,7.85
2023-03-19T23:09:33.095Z,7.78
2023-03-19T23:12:01.391Z,7.78
2023-03-19T23:14:31.138Z,7.81
2023-03-19T23:17:04.089Z,7.77
2023-03-19T23:19:38.356Z,7.71
2023-03-19T23:22:14.227Z,7.69
2023-03-19T23:24:42.244Z,7.68
2023-03-19T23:27:26.062Z,7.69
2023-03-19T23:29:54.070Z,7.69
2023-03-19T23:32:21.963Z,7.60
2023-03-19T23:34:59.500Z,7.56
2023-03-19T23:37:28.644Z,7.59
2023-03-19T23:39:56.416Z,7.65
2023-03-19T23:42:31.955Z,7.62
2023-03-19T23:45:03.564Z,7.49
2023-03-19T23:47:31.376Z,7.52
2023-03-19T23:49:58.770Z,7.55
2023-03-19T23:52:26.067Z,7.48
2023-03-19T23:54:53.441Z,7.45
2023-03-19T23:57:24.313Z,7.39
2023-03-19T23:59:53.415Z,7.35
